地図

経路データ

SID SEASON NUMBER BASIN SUBBASIN NAME ISO_TIME NATURE LAT LON WMO_WIND WMO_PRES WMO_AGENCY TRACK_TYPE DIST2LAND LANDFALL IFLAG USA_AGENCY USA_ATCF_ID USA_LAT USA_LON USA_RECORD USA_STATUS USA_WIND USA_PRES USA_SSHS USA_R34_NE USA_R34_SE USA_R34_SW USA_R34_NW USA_R50_NE USA_R50_SE USA_R50_SW USA_R50_NW USA_R64_NE USA_R64_SE USA_R64_SW USA_R64_NW USA_POCI USA_ROCI USA_RMW USA_EYE TOKYO_LAT TOKYO_LON TOKYO_GRADE TOKYO_WIND TOKYO_PRES TOKYO_R50_DIR TOKYO_R50_LONG TOKYO_R50_SHORT TOKYO_R30_DIR TOKYO_R30_LONG TOKYO_R30_SHORT TOKYO_LAND CMA_LAT CMA_LON CMA_CAT CMA_WIND CMA_PRES HKO_LAT HKO_LON HKO_CAT HKO_WIND HKO_PRES NEWDELHI_LAT NEWDELHI_LON NEWDELHI_GRADE NEWDELHI_WIND NEWDELHI_PRES NEWDELHI_CI NEWDELHI_DP NEWDELHI_POCI REUNION_LAT REUNION_LON REUNION_TYPE REUNION_WIND REUNION_PRES REUNION_TNUM REUNION_CI REUNION_RMW REUNION_R34_NE REUNION_R34_SE REUNION_R34_SW REUNION_R34_NW REUNION_R50_NE REUNION_R50_SE REUNION_R50_SW REUNION_R50_NW REUNION_R64_NE REUNION_R64_SE REUNION_R64_SW REUNION_R64_NW BOM_LAT BOM_LON BOM_TYPE BOM_WIND BOM_PRES BOM_TNUM BOM_CI BOM_RMW BOM_R34_NE BOM_R34_SE BOM_R34_SW BOM_R34_NW BOM_R50_NE BOM_R50_SE BOM_R50_SW BOM_R50_NW BOM_R64_NE BOM_R64_SE BOM_R64_SW BOM_R64_NW BOM_ROCI BOM_POCI BOM_EYE BOM_POS_METHOD BOM_PRES_METHOD NADI_LAT NADI_LON NADI_CAT NADI_WIND NADI_PRES WELLINGTON_LAT WELLINGTON_LON WELLINGTON_WIND WELLINGTON_PRES DS824_LAT DS824_LON DS824_STAGE DS824_WIND DS824_PRES TD9636_LAT TD9636_LON TD9636_STAGE TD9636_WIND TD9636_PRES TD9635_LAT TD9635_LON TD9635_WIND TD9635_PRES TD9635_ROCI NEUMANN_LAT NEUMANN_LON NEUMANN_CLASS NEUMANN_WIND NEUMANN_PRES MLC_LAT MLC_LON MLC_CLASS MLC_WIND MLC_PRES USA_GUST BOM_GUST BOM_GUST_PER REUNION_GUST REUNION_GUST_PER USA_SEAHGT USA_SEARAD_NE USA_SEARAD_SE USA_SEARAD_SW USA_SEARAD_NW STORM_SPEED STORM_DIR
1903208N16132 1903 33 WP MM NOT_NAMED 1903-07-26 16:00:00 NR 16.3000 131.500 main 793 784 __________O___ -1 16.3000 131.500 7 4 282
1903208N16132 1903 33 WP MM NOT_NAMED 1903-07-26 18:00:00 NR 16.3295 131.366 main 784 773 __________P___ -1 16.3295 131.366 7 4 284
1903208N16132 1903 33 WP MM NOT_NAMED 1903-07-26 21:00:00 NR 16.3814 131.159 main 773 748 __________P___ -1 16.3814 131.159 7 4 287
1903208N16132 1903 33 WP MM NOT_NAMED 1903-07-27 00:00:00 NR 16.4530 130.937 main 755 736 __________P___ -1 16.4530 130.937 7 5 291
1903208N16132 1903 33 WP MM NOT_NAMED 1903-07-27 03:00:00 NR 16.5564 130.690 main 740 730 __________P___ -1 16.5564 130.690 7 5 294
1903208N16132 1903 33 WP MM NOT_NAMED 1903-07-27 04:00:00 NR 16.6000 130.600 main 730 715 __________O___ -1 16.6000 130.600 7 6 298
1903208N16132 1903 33 WP MM NOT_NAMED 1903-07-27 06:00:00 NR 16.7022 130.409 main 715 697 __________P___ -1 16.7022 130.409 7 7 301
1903208N16132 1903 33 WP MM NOT_NAMED 1903-07-27 09:00:00 NR 16.8871 130.104 main 697 680 __________P___ -1 16.8871 130.104 7 7 304
1903208N16132 1903 33 WP MM NOT_NAMED 1903-07-27 12:00:00 NR 17.0984 129.793 main 680 665 __________P___ -1 17.0984 129.793 7 7 307
1903208N16132 1903 33 WP MM NOT_NAMED 1903-07-27 15:00:00 NR 17.3239 129.494 main 665 663 __________P___ -1 17.3239 129.494 7 7 309
1903208N16132 1903 33 WP MM NOT_NAMED 1903-07-27 16:00:00 NR 17.4000 129.400 main 663 653 __________O___ -1 17.4000 129.400 7 7 312
1903208N16132 1903 33 WP MM NOT_NAMED 1903-07-27 18:00:00 NR 17.5441 129.235 main 653 650 __________P___ -1 17.5441 129.235 7 6 314
1903208N16132 1903 33 WP MM NOT_NAMED 1903-07-27 21:00:00 NR 17.7667 129.007 main 657 649 __________P___ -1 17.7667 129.007 7 6 317
1903208N16132 1903 33 WP MM NOT_NAMED 1903-07-28 00:00:00 NR 17.9943 128.791 main 657 649 __________P___ -1 17.9943 128.791 7 6 318
1903208N16132 1903 33 WP MM NOT_NAMED 1903-07-28 03:00:00 NR 18.2237 128.575 main 657 649 __________P___ -1 18.2237 128.575 7 6 318
1903208N16132 1903 33 WP MM NOT_NAMED 1903-07-28 04:00:00 NR 18.3000 128.500 main 652 633 __________O___ -1 18.3000 128.500 7 6 315
1903208N16132 1903 33 WP MM NOT_NAMED 1903-07-28 06:00:00 NR 18.4420 128.344 main 633 612 __________P___ -1 18.4420 128.344 7 6 313
1903208N16132 1903 33 WP MM NOT_NAMED 1903-07-28 09:00:00 NR 18.6550 128.104 main 612 591 __________P___ -1 18.6550 128.104 7 6 313
1903208N16132 1903 33 WP MM NOT_NAMED 1903-07-28 12:00:00 NR 18.8761 127.854 main 592 563 __________P___ -1 18.8761 127.854 7 7 314
1903208N16132 1903 33 WP MM NOT_NAMED 1903-07-28 15:00:00 NR 19.1149 127.591 main 563 554 __________P___ -1 19.1149 127.591 7 7 314
1903208N16132 1903 33 WP MM NOT_NAMED 1903-07-28 16:00:00 NR 19.2000 127.500 main 554 537 __________O___ -1 19.2000 127.500 3 8 315
1903208N16132 1903 33 WP MM NOT_NAMED 1903-07-28 18:00:00 NR 19.3829 127.304 main 537 512 __________P___ -1 19.3829 127.304 3 8 315
1903208N16132 1903 33 WP MM NOT_NAMED 1903-07-28 21:00:00 NR 19.6762 126.996 main 514 491 __________P___ -1 19.6762 126.996 3 8 316
1903208N16132 1903 33 WP MM NOT_NAMED 1903-07-29 00:00:00 NR 19.9838 126.687 main 495 475 __________P___ -1 19.9838 126.687 3 8 317
1903208N16132 1903 33 WP MM NOT_NAMED 1903-07-29 03:00:00 NR 20.2963 126.392 main 479 470 __________P___ -1 20.2963 126.392 3 8 319
1903208N16132 1903 33 WP MM NOT_NAMED 1903-07-29 04:00:00 NR 20.4000 126.300 main 475 468 __________O___ -1 20.4000 126.300 4 8 321
1903208N16132 1903 33 WP MM NOT_NAMED 1903-07-29 06:00:00 NR 20.5972 126.130 main 468 462 __________P___ -1 20.5972 126.130 4 8 322
1903208N16132 1903 33 WP MM NOT_NAMED 1903-07-29 09:00:00 NR 20.8931 125.894 main 469 466 __________P___ -1 20.8931 125.894 4 7 324
1903208N16132 1903 33 WP MM NOT_NAMED 1903-07-29 12:00:00 NR 21.1919 125.675 main 473 458 __________P___ -1 21.1919 125.675 4 7 327
1903208N16132 1903 33 WP MM NOT_NAMED 1903-07-29 15:00:00 NR 21.4966 125.468 main 458 444 __________P___ -1 21.4966 125.468 4 7 328
1903208N16132 1903 33 WP MM NOT_NAMED 1903-07-29 16:00:00 NR 21.6000 125.400 main 444 426 __________O___ -1 21.6000 125.400 4 7 328
1903208N16132 1903 33 WP MM NOT_NAMED 1903-07-29 18:00:00 NR 21.8056 125.263 main 426 395 __________P___ -1 21.8056 125.263 4 7 329
1903208N16132 1903 33 WP MM NOT_NAMED 1903-07-29 21:00:00 NR 22.1203 125.065 main 395 367 __________P___ -1 22.1203 125.065 4 7 330
1903208N16132 1903 33 WP MM NOT_NAMED 1903-07-30 00:00:00 NR 22.4453 124.869 main 367 339 __________P___ -1 22.4453 124.869 4 8 331
1903208N16132 1903 33 WP MM NOT_NAMED 1903-07-30 03:00:00 NR 22.7837 124.669 main 339 327 __________P___ -1 22.7837 124.669 4 8 332
1903208N16132 1903 33 WP MM NOT_NAMED 1903-07-30 04:00:00 NR 22.9000 124.600 main 327 307 __________O___ -1 22.9000 124.600 4 8 330
1903208N16132 1903 33 WP MM NOT_NAMED 1903-07-30 06:00:00 NR 23.1360 124.450 main 307 258 __________P___ -1 23.1360 124.450 4 8 330
1903208N16132 1903 33 WP MM NOT_NAMED 1903-07-30 09:00:00 NR 23.5025 124.220 main 258 223 __________P___ -1 23.5025 124.220 4 9 330
1903208N16132 1903 33 WP MM NOT_NAMED 1903-07-30 12:00:00 NR 23.8813 123.990 main 223 193 __________P___ -1 23.8813 123.990 4 9 332
1903208N16132 1903 33 WP MM NOT_NAMED 1903-07-30 15:00:00 NR 24.2692 123.769 main 193 182 __________P___ -1 24.2692 123.769 4 9 333
1903208N16132 1903 33 WP MM NOT_NAMED 1903-07-30 16:00:00 NR 24.4000 123.700 main 182 164 __________O___ -1 24.4000 123.700 4 9 336
1903208N16132 1903 33 WP MM NOT_NAMED 1903-07-30 18:00:00 NR 24.6634 123.574 main 164 140 __________P___ -1 24.6634 123.574 4 9 338
1903208N16132 1903 33 WP MM NOT_NAMED 1903-07-30 21:00:00 NR 25.0651 123.398 main 141 128 __________P___ -1 25.0651 123.398 4 9 339
1903208N16132 1903 33 WP MM NOT_NAMED 1903-07-31 00:00:00 NR 25.4689 123.230 main 132 132 __________P___ -1 25.4689 123.230 4 9 339
1903208N16132 1903 33 WP MM NOT_NAMED 1903-07-31 03:00:00 NR 25.8687 123.059 main 149 142 __________P___ -1 25.8687 123.059 4 9 339
1903208N16132 1903 33 WP MM NOT_NAMED 1903-07-31 04:00:00 NR 26.0000 123.000 main 150 150 __________O___ -1 26.0000 123.000 4 8 336
1903208N16132 1903 33 WP MM NOT_NAMED 1903-07-31 06:00:00 NR 26.2504 122.872 main 170 165 __________P___ -1 26.2504 122.872 4 8 335
1903208N16132 1903 33 WP MM NOT_NAMED 1903-07-31 09:00:00 NR 26.6197 122.674 main 191 170 __________P___ -1 26.6197 122.674 4 8 334
1903208N16132 1903 33 WP MM NOT_NAMED 1903-07-31 12:00:00 NR 26.9896 122.472 main 170 121 __________P___ -1 26.9896 122.472 4 8 334
1903208N16132 1903 33 WP MM NOT_NAMED 1903-07-31 15:00:00 NR 27.3695 122.268 main 121 106 __________P___ -1 27.3695 122.268 4 9 335
1903208N16132 1903 33 WP MM NOT_NAMED 1903-07-31 16:00:00 NR 27.5000 122.200 main 106 74 __________O___ -1 27.5000 122.200 4 9 335
1903208N16132 1903 33 WP MM NOT_NAMED 1903-07-31 18:00:00 NR 27.7681 122.065 main 74 31 __________P___ -1 27.7681 122.065 4 9 337
1903208N16132 1903 33 WP MM NOT_NAMED 1903-07-31 21:00:00 NR 28.1854 121.865 main 31 9 __________P___ -1 28.1854 121.865 4 9 337
1903208N16132 1903 33 WP MM NOT_NAMED 1903-08-01 00:00:00 NR 28.6158 121.666 main 11 0 __________P___ -1 28.6158 121.666 4 9 338
1903208N16132 1903 33 WP MM NOT_NAMED 1903-08-01 03:00:00 NR 29.0535 121.467 main 0 0 __________P___ -1 29.0535 121.467 4 9 338
1903208N16132 1903 33 WP MM NOT_NAMED 1903-08-01 04:00:00 NR 29.2000 121.400 main 0 __________O___ -1 29.2000 121.400 4 9 338

デジタル台風データ・検索

IBTrACS Databaseについて

本データベースは、米国NOAAが公開する1842年以降の世界の熱帯低気圧のベストトラックデータアーカイブInternational Best Track Archive for Climate Stewardship (IBTrACS)を、ウェブで閲覧しやすい形式に変換したものです。

最終更新日:2021-10-21